createdAt,value
2023-01-27T00:00:11.972Z,95829.00
2023-01-27T00:02:42.178Z,95829.59
2023-01-27T00:05:09.858Z,95826.34
2023-01-27T00:07:36.449Z,95829.00
2023-01-27T00:10:03.757Z,95825.50
2023-01-27T00:12:49.143Z,95821.31
2023-01-27T00:15:15.918Z,95828.44
2023-01-27T00:17:42.580Z,95827.66
2023-01-27T00:20:09.531Z,95827.97
2023-01-27T00:22:54.961Z,95825.53
2023-01-27T00:25:21.382Z,95825.94
2023-01-27T00:27:47.850Z,95827.06
2023-01-27T00:30:14.471Z,95825.59
2023-01-27T00:32:59.908Z,95819.66
2023-01-27T00:35:26.337Z,95821.44
2023-01-27T00:37:54.271Z,95827.91
2023-01-27T00:40:20.784Z,95819.28
2023-01-27T00:42:47.144Z,95819.53
2023-01-27T00:45:32.520Z,95818.00
2023-01-27T00:47:58.933Z,95818.06
2023-01-27T00:50:25.414Z,95820.50
2023-01-27T00:52:52.785Z,95823.13
2023-01-27T00:55:19.418Z,95819.59
2023-01-27T00:57:45.909Z,95824.56
2023-01-27T01:00:13.087Z,95821.97
2023-01-27T01:02:39.755Z,95822.72
2023-01-27T01:05:06.431Z,95825.41
2023-01-27T01:07:32.944Z,95825.56
2023-01-27T01:09:59.361Z,95823.13
2023-01-27T01:12:26.792Z,95819.34
2023-01-27T01:14:53.251Z,95830.44
2023-01-27T01:17:19.650Z,95826.25
2023-01-27T01:19:46.060Z,95819.66
2023-01-27T01:22:12.478Z,95830.41
2023-01-27T01:24:40.711Z,95830.63
2023-01-27T01:27:07.327Z,95833.31
2023-01-27T01:29:33.982Z,95826.53
2023-01-27T01:32:00.450Z,95827.13
2023-01-27T01:34:26.877Z,95824.78
2023-01-27T01:36:53.267Z,95825.53
2023-01-27T01:39:19.736Z,95830.41
2023-01-27T01:41:46.978Z,95831.50
2023-01-27T01:44:22.487Z,95829.56
2023-01-27T01:46:48.990Z,95823.84
2023-01-27T01:49:17.203Z,95827.31
2023-01-27T01:51:46.398Z,95828.78
2023-01-27T01:54:26.693Z,95827.56
2023-01-27T01:57:01.470Z,95823.34
2023-01-27T01:59:43.559Z,95824.19
2023-01-27T02:02:15.746Z,95816.59
2023-01-27T02:04:45.381Z,95818.38
2023-01-27T02:07:18.064Z,95820.22
2023-01-27T02:09:44.490Z,95812.66
2023-01-27T02:12:11.368Z,95808.09
2023-01-27T02:14:39.188Z,95807.41
2023-01-27T02:17:05.721Z,95810.91
2023-01-27T02:19:37.153Z,95807.53
2023-01-27T02:22:04.847Z,95807.56
2023-01-27T02:24:37.356Z,95803.31
2023-01-27T02:27:04.160Z,95802.19
2023-01-27T02:29:30.589Z,95797.06
2023-01-27T02:31:57.289Z,95806.41
2023-01-27T02:34:27.204Z,95798.06
2023-01-27T02:36:57.416Z,95797.06
2023-01-27T02:39:26.393Z,95794.56
2023-01-27T02:41:54.878Z,95791.25
2023-01-27T02:44:21.345Z,95797.22
2023-01-27T02:46:48.024Z,95800.38
2023-01-27T02:49:14.979Z,95798.66
2023-01-27T02:51:41.563Z,95800.44
2023-01-27T02:54:08.293Z,95800.53
2023-01-27T02:56:35.034Z,95795.53
2023-01-27T02:59:02.353Z,95795.16
2023-01-27T03:01:36.098Z,95801.22
2023-01-27T03:04:02.599Z,95797.28
2023-01-27T03:06:29.051Z,95796.50
2023-01-27T03:08:55.599Z,95803.75
2023-01-27T03:11:40.915Z,95802.06
2023-01-27T03:14:08.120Z,95799.88
2023-01-27T03:16:54.101Z,95800.72
2023-01-27T03:19:20.526Z,95810.75
2023-01-27T03:21:51.062Z,95806.28
2023-01-27T03:24:18.019Z,95812.66
2023-01-27T03:26:44.887Z,95798.06
2023-01-27T03:29:32.762Z,95798.69
2023-01-27T03:32:00.560Z,95796.13
2023-01-27T03:34:27.881Z,95797.22
2023-01-27T03:37:19.939Z,95796.34
2023-01-27T03:40:05.221Z,95798.13
2023-01-27T03:42:50.482Z,95782.72
2023-01-27T03:45:35.787Z,95798.66
2023-01-27T03:48:02.227Z,95787.84
2023-01-27T03:50:37.730Z,95785.13
2023-01-27T03:53:05.273Z,95778.34
2023-01-27T03:55:32.339Z,95786.78
2023-01-27T03:58:17.983Z,95792.78
2023-01-27T04:00:45.168Z,95809.03
2023-01-27T04:03:30.435Z,95798.81
2023-01-27T04:06:15.603Z,95801.16
2023-01-27T04:08:42.437Z,95804.66
2023-01-27T04:11:27.970Z,95802.19
2023-01-27T04:13:55.019Z,95808.22
2023-01-27T04:16:28.929Z,95794.81
2023-01-27T04:18:55.902Z,95803.72
2023-01-27T04:21:23.200Z,95801.91
2023-01-27T04:23:49.668Z,95799.16
2023-01-27T04:26:16.116Z,95799.59
2023-01-27T04:28:44.562Z,95807.13
2023-01-27T04:31:11.303Z,95807.16
2023-01-27T04:33:37.762Z,95806.16
2023-01-27T04:36:04.335Z,95809.81
2023-01-27T04:38:30.830Z,95816.88
2023-01-27T04:40:57.400Z,95811.06
2023-01-27T04:43:23.892Z,95821.31
2023-01-27T04:45:50.472Z,95819.28
2023-01-27T04:48:16.912Z,95827.31
2023-01-27T04:50:43.406Z,95819.03
2023-01-27T04:53:09.873Z,95834.09
2023-01-27T04:55:36.620Z,95825.00
2023-01-27T04:58:03.766Z,95831.91
2023-01-27T05:00:30.258Z,95820.59
2023-01-27T05:02:56.652Z,95811.31
2023-01-27T05:05:23.494Z,95806.31
2023-01-27T05:07:49.882Z,95815.91
2023-01-27T05:10:16.720Z,95807.53
2023-01-27T05:12:43.144Z,95811.78
2023-01-27T05:15:09.811Z,95809.13
2023-01-27T05:17:36.261Z,95799.69
2023-01-27T05:20:02.722Z,95811.56
2023-01-27T05:22:29.146Z,95805.50
2023-01-27T05:24:55.610Z,95809.84
2023-01-27T05:27:22.184Z,95819.25
2023-01-27T05:29:48.617Z,95824.38
2023-01-27T05:32:15.025Z,95821.44
2023-01-27T05:34:41.443Z,95828.63
2023-01-27T05:37:07.892Z,95821.00
2023-01-27T05:39:34.319Z,95825.03
2023-01-27T05:42:00.850Z,95824.13
2023-01-27T05:44:27.283Z,95829.91
2023-01-27T05:46:53.748Z,95833.31
2023-01-27T05:49:20.177Z,95828.50
2023-01-27T05:51:46.614Z,95836.94
2023-01-27T05:54:13.380Z,95838.66
2023-01-27T05:56:40.743Z,95833.78
2023-01-27T05:59:07.795Z,95840.25
2023-01-27T06:01:34.918Z,95843.06
2023-01-27T06:04:01.699Z,95842.31
2023-01-27T06:06:29.430Z,95839.03
2023-01-27T06:08:56.066Z,95848.22
2023-01-27T06:11:24.140Z,95849.53
2023-01-27T06:13:51.744Z,95849.03
2023-01-27T06:16:19.118Z,95843.34
2023-01-27T06:18:46.129Z,95853.94
2023-01-27T06:21:14.030Z,95862.59
2023-01-27T06:23:40.461Z,95859.19
2023-01-27T06:26:09.440Z,95854.56
2023-01-27T06:28:36.585Z,95863.56
2023-01-27T06:31:07.712Z,95861.19
2023-01-27T06:33:34.199Z,95861.53
2023-01-27T06:36:02.558Z,95867.16
2023-01-27T06:38:29.078Z,95870.94
2023-01-27T06:40:55.493Z,95869.44
2023-01-27T06:43:22.139Z,95874.31
2023-01-27T06:45:49.515Z,95870.78
2023-01-27T06:48:16.035Z,95877.72
2023-01-27T06:50:42.646Z,95876.38
2023-01-27T06:53:09.443Z,95876.28
2023-01-27T06:55:41.287Z,95879.00
2023-01-27T06:58:08.968Z,95870.78
2023-01-27T07:00:36.652Z,95875.38
2023-01-27T07:03:03.994Z,95880.88
2023-01-27T07:05:30.861Z,95871.16
2023-01-27T07:07:57.313Z,95877.09
2023-01-27T07:10:23.705Z,95885.16
2023-01-27T07:12:50.074Z,95894.06
2023-01-27T07:15:16.513Z,95904.84
2023-01-27T07:17:43.064Z,95907.94
2023-01-27T07:20:12.346Z,95912.63
2023-01-27T07:22:39.538Z,95913.13
2023-01-27T07:25:06.711Z,95918.72
2023-01-27T07:27:33.161Z,95923.03
2023-01-27T07:29:59.572Z,95921.13
2023-01-27T07:32:28.165Z,95925.91
2023-01-27T07:34:55.342Z,95937.97
2023-01-27T07:37:21.965Z,95929.22
2023-01-27T07:39:48.704Z,95934.44
2023-01-27T07:42:15.663Z,95931.84
2023-01-27T07:44:42.093Z,95936.44
2023-01-27T07:47:08.509Z,95937.03
2023-01-27T07:49:34.969Z,95935.09
2023-01-27T07:52:01.618Z,95928.59
2023-01-27T07:54:28.268Z,95928.19
2023-01-27T07:56:55.335Z,95942.56
2023-01-27T07:59:21.981Z,95942.44
2023-01-27T08:01:48.768Z,95944.81
2023-01-27T08:04:15.553Z,95941.63
2023-01-27T08:06:42.100Z,95947.88
2023-01-27T08:09:08.574Z,95945.25
2023-01-27T08:11:35.019Z,95946.50
2023-01-27T08:14:01.612Z,95946.44
2023-01-27T08:16:28.069Z,95949.47
2023-01-27T08:18:54.873Z,95944.44
2023-01-27T08:21:21.487Z,95948.88
2023-01-27T08:23:47.968Z,95949.81
2023-01-27T08:26:14.426Z,95963.50
2023-01-27T08:28:41.343Z,95963.63
2023-01-27T08:31:08.852Z,95968.00
2023-01-27T08:33:35.722Z,95952.09
2023-01-27T08:36:03.509Z,95961.00
2023-01-27T08:38:30.042Z,95961.94
2023-01-27T08:40:56.472Z,95968.00
2023-01-27T08:43:22.907Z,95979.00
2023-01-27T08:45:51.925Z,95971.16
2023-01-27T08:48:18.332Z,95974.06
2023-01-27T08:50:44.747Z,95976.94
2023-01-27T08:53:11.165Z,95978.75
2023-01-27T08:55:37.572Z,95983.63
2023-01-27T08:58:03.964Z,95987.78
2023-01-27T09:00:30.485Z,95980.25
2023-01-27T09:02:56.877Z,95979.03
2023-01-27T09:05:23.475Z,95978.28
2023-01-27T09:07:49.986Z,95980.84
2023-01-27T09:10:16.877Z,95980.84
2023-01-27T09:12:44.051Z,95984.03
2023-01-27T09:15:11.406Z,95980.28
2023-01-27T09:17:37.882Z,95980.31
2023-01-27T09:20:04.480Z,95977.13
2023-01-27T09:22:31.328Z,95983.63
2023-01-27T09:24:57.796Z,95974.75
2023-01-27T09:27:37.267Z,95973.94
2023-01-27T09:30:05.037Z,95983.84
2023-01-27T09:32:31.429Z,95976.72
2023-01-27T09:34:57.791Z,95972.34
2023-01-27T09:37:26.884Z,95962.06
2023-01-27T09:39:56.820Z,95964.31
2023-01-27T09:42:50.333Z,95973.28
2023-01-27T09:45:19.807Z,95968.00
2023-01-27T09:48:12.587Z,95960.09
2023-01-27T09:50:48.525Z,95960.31
2023-01-27T09:53:33.477Z,95962.69
2023-01-27T09:56:05.009Z,95971.84
2023-01-27T09:59:00.933Z,95959.88
2023-01-27T10:01:30.443Z,95968.66
2023-01-27T10:04:15.208Z,95969.25
2023-01-27T10:06:53.875Z,95969.91
2023-01-27T10:09:23.345Z,95977.19
2023-01-27T10:11:58.902Z,95972.72
2023-01-27T10:14:25.315Z,95972.72
2023-01-27T10:17:10.697Z,95986.41
2023-01-27T10:19:54.535Z,95977.06
2023-01-27T10:22:29.221Z,95986.09
2023-01-27T10:25:19.048Z,95986.78
2023-01-27T10:27:47.617Z,95995.63
2023-01-27T10:30:16.756Z,95992.09
2023-01-27T10:32:49.390Z,95992.91
2023-01-27T10:35:22.028Z,96000.44
2023-01-27T10:37:54.450Z,96001.97
2023-01-27T10:40:27.511Z,95989.38
2023-01-27T10:43:02.128Z,95998.88
2023-01-27T10:45:31.733Z,95996.63
2023-01-27T10:48:16.853Z,96000.16
2023-01-27T10:50:45.849Z,95998.81
2023-01-27T10:53:16.909Z,95994.94
2023-01-27T10:56:01.819Z,95998.94
2023-01-27T10:58:34.364Z,96000.13
2023-01-27T11:01:20.202Z,95991.84
2023-01-27T11:03:51.511Z,95997.16
2023-01-27T11:06:22.134Z,96007.63
2023-01-27T11:08:51.973Z,95996.75
2023-01-27T11:11:39.646Z,95995.66
2023-01-27T11:14:15.935Z,95989.34
2023-01-27T11:16:44.606Z,95994.09
2023-01-27T11:19:22.719Z,95986.47
2023-01-27T11:22:06.226Z,95989.47
2023-01-27T11:24:45.588Z,95978.09
2023-01-27T11:27:24.119Z,95976.69
2023-01-27T11:29:56.229Z,95983.63
2023-01-27T11:32:31.860Z,95986.91
2023-01-27T11:35:04.475Z,95981.34
2023-01-27T11:37:33.962Z,95979.59
2023-01-27T11:40:00.621Z,95978.56
2023-01-27T11:42:30.248Z,95987.34
2023-01-27T11:44:57.831Z,95982.78
2023-01-27T11:47:26.849Z,95984.38
2023-01-27T11:49:54.032Z,95986.06
2023-01-27T11:52:22.305Z,95978.03
2023-01-27T11:54:52.478Z,95969.94
2023-01-27T11:57:20.770Z,95962.63
2023-01-27T11:59:48.494Z,95969.81
2023-01-27T12:02:25.431Z,95964.41
2023-01-27T12:05:07.189Z,95950.53
2023-01-27T12:07:54.404Z,95956.97
2023-01-27T12:10:22.102Z,95958.16
2023-01-27T12:12:48.532Z,95953.75
2023-01-27T12:15:16.044Z,95956.19
2023-01-27T12:17:46.923Z,95942.63
2023-01-27T12:20:20.071Z,95955.09
2023-01-27T12:22:48.434Z,95951.44
2023-01-27T12:25:19.809Z,95949.66
2023-01-27T12:27:51.460Z,95948.69
2023-01-27T12:30:21.130Z,95955.75
2023-01-27T12:32:47.975Z,95963.72
2023-01-27T12:35:33.370Z,95962.38
2023-01-27T12:38:03.252Z,95963.72
2023-01-27T12:40:29.766Z,95956.38
2023-01-27T12:43:02.321Z,95962.63
2023-01-27T12:45:35.545Z,95949.22
2023-01-27T12:48:02.034Z,95947.69
2023-01-27T12:50:28.425Z,95948.59
2023-01-27T12:52:54.828Z,95948.75
2023-01-27T12:55:34.163Z,95950.88
2023-01-27T12:58:00.888Z,95954.88
2023-01-27T13:00:27.911Z,95949.38
2023-01-27T13:03:01.122Z,95948.69
2023-01-27T13:05:27.623Z,95951.56
2023-01-27T13:07:54.221Z,95947.25
2023-01-27T13:10:22.739Z,95938.59
2023-01-27T13:12:54.174Z,95948.41
2023-01-27T13:15:21.784Z,95942.56
2023-01-27T13:17:55.547Z,95949.22
2023-01-27T13:20:21.968Z,95937.75
2023-01-27T13:22:54.347Z,95947.47
2023-01-27T13:25:23.201Z,95949.16
2023-01-27T13:27:51.344Z,95945.66
2023-01-27T13:30:30.120Z,95945.44
2023-01-27T13:32:59.531Z,95947.97
2023-01-27T13:35:30.926Z,95946.38
2023-01-27T13:38:15.423Z,95943.47
2023-01-27T13:40:44.491Z,95955.94
2023-01-27T13:43:20.333Z,95950.59
2023-01-27T13:45:54.304Z,95955.72
2023-01-27T13:48:24.440Z,95954.56
2023-01-27T13:50:58.286Z,95952.53
2023-01-27T13:53:25.188Z,95960.44
2023-01-27T13:56:19.620Z,95958.66
2023-01-27T13:58:46.066Z,95965.34
2023-01-27T14:01:25.224Z,95962.72
2023-01-27T14:04:05.459Z,95970.25
2023-01-27T14:06:37.903Z,95981.94
2023-01-27T14:09:17.813Z,95978.91
2023-01-27T14:12:07.331Z,95979.88
2023-01-27T14:14:56.099Z,95977.47
2023-01-27T14:17:27.117Z,95979.34
2023-01-27T14:19:56.318Z,95977.00
2023-01-27T14:22:22.824Z,95977.78
2023-01-27T14:24:49.454Z,95979.00
2023-01-27T14:27:27.359Z,95981.69
2023-01-27T14:29:58.192Z,95978.59
2023-01-27T14:32:35.076Z,95991.66
2023-01-27T14:35:09.844Z,95989.78
2023-01-27T14:37:55.300Z,95985.72
2023-01-27T14:40:29.143Z,95986.66
2023-01-27T14:42:55.537Z,95985.59
2023-01-27T14:45:24.720Z,95994.25
2023-01-27T14:47:57.568Z,95996.06
2023-01-27T14:50:26.965Z,95999.81
2023-01-27T14:53:07.409Z,96000.19
2023-01-27T14:55:39.921Z,95999.06
2023-01-27T14:58:22.469Z,96001.63
2023-01-27T15:00:52.588Z,95998.47
2023-01-27T15:03:34.415Z,96001.47
2023-01-27T15:06:11.901Z,96004.97
2023-01-27T15:08:42.999Z,96012.94
2023-01-27T15:11:28.303Z,96008.19
2023-01-27T15:13:57.543Z,96010.97
2023-01-27T15:16:24.016Z,96006.69
2023-01-27T15:19:01.098Z,96006.75
2023-01-27T15:21:30.611Z,96005.91
2023-01-27T15:24:03.574Z,96006.97
2023-01-27T15:26:31.374Z,96010.22
2023-01-27T15:28:58.268Z,96008.47
2023-01-27T15:31:26.389Z,95996.50
2023-01-27T15:33:55.906Z,96000.81
2023-01-27T15:36:29.855Z,96003.59
2023-01-27T15:39:11.473Z,96009.44
2023-01-27T15:41:50.362Z,96004.38
2023-01-27T15:44:19.744Z,96009.59
2023-01-27T15:46:47.865Z,96005.44
2023-01-27T15:49:17.278Z,96008.38
2023-01-27T15:51:43.825Z,96008.94
2023-01-27T15:54:16.433Z,96017.41
2023-01-27T15:56:46.676Z,96014.81
2023-01-27T15:59:18.091Z,96014.78
2023-01-27T16:01:44.594Z,96009.31
2023-01-27T16:04:11.001Z,96019.63
2023-01-27T16:06:44.849Z,96025.00
2023-01-27T16:09:24.418Z,96030.41
2023-01-27T16:11:58.601Z,96037.03
2023-01-27T16:14:32.842Z,96045.41
2023-01-27T16:17:15.808Z,96036.78
2023-01-27T16:20:05.242Z,96043.03
2023-01-27T16:22:32.970Z,96049.56
2023-01-27T16:25:03.800Z,96051.31
2023-01-27T16:27:33.259Z,96063.88
2023-01-27T16:30:11.936Z,96068.78
2023-01-27T16:32:41.857Z,96071.09
2023-01-27T16:35:17.148Z,96063.25
2023-01-27T16:37:59.672Z,96066.66
2023-01-27T16:40:27.575Z,96068.28
2023-01-27T16:42:53.965Z,96072.72
2023-01-27T16:45:21.910Z,96079.22
2023-01-27T16:47:52.815Z,96079.16
2023-01-27T16:50:38.475Z,96077.28
2023-01-27T16:53:07.144Z,96085.19
2023-01-27T16:55:33.617Z,96086.53
2023-01-27T16:58:01.660Z,96086.00
2023-01-27T17:00:35.867Z,96087.84
2023-01-27T17:03:11.143Z,96081.47
2023-01-27T17:05:38.191Z,96080.41
2023-01-27T17:08:24.317Z,96085.75
2023-01-27T17:11:04.090Z,96092.19
2023-01-27T17:13:44.961Z,96095.63
2023-01-27T17:16:14.238Z,96094.81
2023-01-27T17:18:52.308Z,96096.50
2023-01-27T17:21:34.634Z,96094.91
2023-01-27T17:24:04.228Z,96096.63
2023-01-27T17:26:30.939Z,96087.56
2023-01-27T17:28:57.732Z,96088.91
2023-01-27T17:31:24.897Z,96083.69
2023-01-27T17:33:56.487Z,96091.13
2023-01-27T17:36:22.902Z,96089.22
2023-01-27T17:38:50.692Z,96092.84
2023-01-27T17:41:23.359Z,96088.19
2023-01-27T17:43:50.016Z,96103.00
2023-01-27T17:46:24.001Z,96093.38
2023-01-27T17:48:55.414Z,96091.44
2023-01-27T17:51:26.716Z,96100.69
2023-01-27T17:53:54.505Z,96110.88
2023-01-27T17:56:28.043Z,96103.81
2023-01-27T17:58:57.749Z,96102.78
2023-01-27T18:01:24.398Z,96106.22
2023-01-27T18:03:53.831Z,96104.94
2023-01-27T18:06:22.217Z,96107.00
2023-01-27T18:08:50.599Z,96112.53
2023-01-27T18:11:25.608Z,96114.88
2023-01-27T18:13:53.486Z,96124.56
2023-01-27T18:16:21.542Z,96124.19
2023-01-27T18:18:49.408Z,96127.94
2023-01-27T18:21:23.542Z,96127.81
2023-01-27T18:23:52.690Z,96131.44
2023-01-27T18:26:21.392Z,96125.69
2023-01-27T18:29:05.778Z,96128.09
2023-01-27T18:31:37.348Z,96125.84
2023-01-27T18:34:06.768Z,96132.28
2023-01-27T18:36:35.516Z,96132.84
2023-01-27T18:39:22.524Z,96128.09
2023-01-27T18:41:49.701Z,96129.09
2023-01-27T18:44:18.782Z,96137.16
2023-01-27T18:46:45.254Z,96134.50
2023-01-27T18:49:12.121Z,96129.41
2023-01-27T18:51:38.589Z,96127.31
2023-01-27T18:54:05.890Z,96128.91
2023-01-27T18:56:32.586Z,96133.38
2023-01-27T18:58:59.237Z,96128.13
2023-01-27T19:01:25.648Z,96134.66
2023-01-27T19:03:52.473Z,96138.25
2023-01-27T19:06:19.004Z,96131.34
2023-01-27T19:08:45.477Z,96127.13
2023-01-27T19:11:15.911Z,96122.06
2023-01-27T19:13:42.813Z,96130.66
2023-01-27T19:16:13.762Z,96129.53
2023-01-27T19:18:41.007Z,96131.13
2023-01-27T19:21:10.440Z,96125.31
2023-01-27T19:23:37.000Z,96121.50
2023-01-27T19:26:04.974Z,96124.63
2023-01-27T19:28:31.419Z,96125.16
2023-01-27T19:30:58.029Z,96131.28
2023-01-27T19:33:25.465Z,96136.53
2023-01-27T19:35:54.193Z,96126.91
2023-01-27T19:38:21.443Z,96121.63
2023-01-27T19:40:47.975Z,96120.22
2023-01-27T19:43:14.921Z,96120.25
2023-01-27T19:45:42.881Z,96135.59
2023-01-27T19:48:16.837Z,96138.34
2023-01-27T19:50:43.676Z,96144.94
2023-01-27T19:53:11.543Z,96150.59
2023-01-27T19:55:37.958Z,96154.84
2023-01-27T19:58:04.577Z,96150.19
2023-01-27T20:00:32.864Z,96153.25
2023-01-27T20:02:59.704Z,96149.78
2023-01-27T20:05:27.903Z,96153.13
2023-01-27T20:07:55.171Z,96158.41
2023-01-27T20:10:23.598Z,96161.78
2023-01-27T20:12:56.394Z,96157.31
2023-01-27T20:15:24.393Z,96167.28
2023-01-27T20:17:51.995Z,96174.34
2023-01-27T20:20:18.587Z,96165.97
2023-01-27T20:22:45.319Z,96168.59
2023-01-27T20:25:13.952Z,96164.19
2023-01-27T20:27:40.943Z,96167.63
2023-01-27T20:30:07.672Z,96161.16
2023-01-27T20:32:34.105Z,96158.34
2023-01-27T20:35:00.537Z,96171.59
2023-01-27T20:37:26.998Z,96165.13
2023-01-27T20:39:53.423Z,96172.81
2023-01-27T20:42:19.934Z,96170.00
2023-01-27T20:44:46.339Z,96172.22
2023-01-27T20:47:13.392Z,96170.94
2023-01-27T20:49:39.805Z,96165.63
2023-01-27T20:52:06.775Z,96173.00
2023-01-27T20:54:33.201Z,96170.53
2023-01-27T20:56:59.763Z,96168.75
2023-01-27T20:59:26.445Z,96166.50
2023-01-27T21:01:52.901Z,96170.28
2023-01-27T21:04:19.314Z,96173.78
2023-01-27T21:06:45.735Z,96179.69
2023-01-27T21:09:12.143Z,96175.94
2023-01-27T21:11:38.589Z,96171.09
2023-01-27T21:14:05.092Z,96177.41
2023-01-27T21:16:31.679Z,96184.84
2023-01-27T21:18:58.156Z,96181.50
2023-01-27T21:21:27.172Z,96166.59
2023-01-27T21:23:57.583Z,96177.78
2023-01-27T21:26:24.364Z,96183.81
2023-01-27T21:28:50.857Z,96180.94
2023-01-27T21:31:18.772Z,96180.88
2023-01-27T21:33:49.968Z,96184.44
2023-01-27T21:36:17.336Z,96182.69
2023-01-27T21:38:43.743Z,96182.44
2023-01-27T21:41:13.316Z,96190.78
2023-01-27T21:43:58.558Z,96179.53
2023-01-27T21:46:25.127Z,96182.56
2023-01-27T21:48:51.621Z,96185.03
2023-01-27T21:51:18.081Z,96186.56
2023-01-27T21:53:44.657Z,96184.09
2023-01-27T21:56:11.185Z,96176.00
2023-01-27T21:58:37.699Z,96178.59
2023-01-27T22:01:05.329Z,96174.59
2023-01-27T22:03:31.814Z,96182.81
2023-01-27T22:05:58.215Z,96179.03
2023-01-27T22:08:24.659Z,96174.97
2023-01-27T22:10:51.078Z,96172.47
2023-01-27T22:13:17.506Z,96173.84
2023-01-27T22:15:48.447Z,96169.94
2023-01-27T22:18:14.872Z,96169.81
2023-01-27T22:20:41.353Z,96173.97
2023-01-27T22:23:07.874Z,96166.28
2023-01-27T22:25:34.362Z,96168.41
2023-01-27T22:28:00.810Z,96167.41
2023-01-27T22:30:27.298Z,96167.63
2023-01-27T22:32:53.789Z,96159.47
2023-01-27T22:35:20.204Z,96155.41
2023-01-27T22:37:48.797Z,96158.50
2023-01-27T22:40:16.378Z,96157.31
2023-01-27T22:42:42.815Z,96156.41
2023-01-27T22:45:09.944Z,96157.47
2023-01-27T22:47:36.396Z,96156.25
2023-01-27T22:50:02.869Z,96153.69
2023-01-27T22:52:29.290Z,96158.50
2023-01-27T22:54:55.667Z,96158.75
2023-01-27T22:57:22.056Z,96160.91
2023-01-27T22:59:48.468Z,96163.41
2023-01-27T23:02:15.050Z,96150.66
2023-01-27T23:04:41.495Z,96151.94
2023-01-27T23:07:07.884Z,96151.97
2023-01-27T23:09:34.308Z,96159.38
2023-01-27T23:12:00.804Z,96160.91
2023-01-27T23:14:27.228Z,96164.84
2023-01-27T23:16:53.797Z,96171.41
2023-01-27T23:19:21.863Z,96161.34
2023-01-27T23:21:48.393Z,96161.66
2023-01-27T23:24:15.399Z,96168.25
2023-01-27T23:26:41.915Z,96163.97
2023-01-27T23:29:22.951Z,96163.28
2023-01-27T23:31:51.502Z,96174.19
2023-01-27T23:34:18.008Z,96165.53
2023-01-27T23:36:44.443Z,96172.47
2023-01-27T23:39:14.407Z,96169.22
2023-01-27T23:41:40.925Z,96176.28
2023-01-27T23:44:10.108Z,96161.75
2023-01-27T23:46:36.549Z,96173.53
2023-01-27T23:49:02.981Z,96170.19
2023-01-27T23:51:29.491Z,96164.06
2023-01-27T23:53:55.898Z,96167.72
2023-01-27T23:56:22.334Z,96170.19
2023-01-27T23:58:48.907Z,96175.56
